Prescot, United Kingdom
Current Conditions -  °F | °C
As of 12:50 PM on Sunday 21 Dec 2014 (Local Time) from EGGP Reporting Station
Scattered Clouds Scattered Clouds  
Wind Chill: 12°   Ceiling: Unl
Heat Index: 12°   Visibility: 6mi
Dew Point:   Wind: 24mph
Humidity: 77%   Direction: 230°SW
Pressure: 30.09"   Gusts: NA
Location:  53.43°N, 2.8°W
Report Text: EGGP 211250Z 23021KT 9999 FEW019 SCT044 12/08 Q1019
Loading
Personal Weather Stations






























Interactive Weather Map New forecast layout! Learn more

10-Day Weather Forecast

Advertisements
Track Severe Weather on mobile